createdAt,value
2023-03-15T00:00:50.369Z,7.77
2023-03-15T00:03:17.366Z,7.91
2023-03-15T00:05:45.340Z,6.75
2023-03-15T00:08:12.400Z,6.14
2023-03-15T00:10:43.093Z,6.77
2023-03-15T00:13:10.450Z,6.87
2023-03-15T00:15:37.449Z,7.09
2023-03-15T00:18:04.426Z,6.66
2023-03-15T00:20:31.611Z,6.24
2023-03-15T00:22:58.616Z,6.43
2023-03-15T00:25:25.808Z,5.75
2023-03-15T00:27:52.948Z,6.22
2023-03-15T00:30:19.995Z,6.71
2023-03-15T00:32:46.972Z,6.01
2023-03-15T00:35:14.093Z,5.49
2023-03-15T00:37:41.473Z,6.32
2023-03-15T00:40:09.218Z,4.77
2023-03-15T00:42:36.326Z,4.85
2023-03-15T00:45:03.529Z,4.70
2023-03-15T00:47:30.516Z,4.88
2023-03-15T00:49:57.504Z,5.40
2023-03-15T00:52:24.754Z,6.12
2023-03-15T00:54:53.378Z,5.52
2023-03-15T00:57:20.510Z,4.95
2023-03-15T00:59:47.638Z,4.53
2023-03-15T01:02:14.700Z,5.36
2023-03-15T01:04:41.662Z,4.07
2023-03-15T01:07:08.636Z,4.79
2023-03-15T01:09:35.568Z,3.63
2023-03-15T01:12:02.629Z,5.00
2023-03-15T01:14:31.710Z,4.90
2023-03-15T01:16:58.898Z,4.86
2023-03-15T01:19:25.842Z,5.25
2023-03-15T01:21:53.569Z,4.66
2023-03-15T01:24:20.635Z,4.41
2023-03-15T01:26:50.100Z,4.49
2023-03-15T01:29:18.141Z,4.93
2023-03-15T01:31:45.404Z,5.17
2023-03-15T01:34:12.562Z,4.91
2023-03-15T01:36:39.529Z,5.96
2023-03-15T01:39:06.671Z,5.25
2023-03-15T01:41:41.128Z,6.03
2023-03-15T01:44:15.437Z,6.71
2023-03-15T01:46:43.851Z,6.66
2023-03-15T01:49:32.747Z,6.20
2023-03-15T01:52:06.490Z,5.33
2023-03-15T01:54:42.540Z,5.38
2023-03-15T01:57:25.385Z,4.73
2023-03-15T02:00:16.702Z,5.65
2023-03-15T02:03:04.189Z,4.78
2023-03-15T02:05:35.716Z,5.41
2023-03-15T02:08:06.027Z,5.96
2023-03-15T02:10:40.843Z,5.51
2023-03-15T02:13:08.305Z,4.80
2023-03-15T02:15:35.531Z,5.19
2023-03-15T02:18:05.477Z,5.09
2023-03-15T02:20:38.328Z,3.76
2023-03-15T02:23:12.220Z,3.42
2023-03-15T02:26:16.726Z,4.31
2023-03-15T02:28:43.772Z,4.18
2023-03-15T02:31:12.439Z,3.98
2023-03-15T02:33:42.007Z,3.02
2023-03-15T02:36:11.663Z,2.42
2023-03-15T02:38:38.706Z,3.06
2023-03-15T02:41:05.850Z,3.05
2023-03-15T02:43:34.342Z,3.30
2023-03-15T02:46:02.088Z,2.77
2023-03-15T02:48:31.462Z,3.21
2023-03-15T02:50:58.731Z,2.81
2023-03-15T02:53:26.208Z,3.82
2023-03-15T02:55:53.425Z,4.14
2023-03-15T02:58:20.486Z,3.83
2023-03-15T03:00:48.864Z,4.52
2023-03-15T03:03:18.702Z,4.87
2023-03-15T03:05:45.732Z,4.98
2023-03-15T03:08:16.429Z,4.98
2023-03-15T03:10:43.902Z,5.46
2023-03-15T03:13:10.893Z,5.06
2023-03-15T03:15:39.605Z,4.60
2023-03-15T03:18:06.655Z,3.62
2023-03-15T03:20:33.786Z,4.19
2023-03-15T03:23:05.926Z,4.59
2023-03-15T03:25:33.778Z,4.70
2023-03-15T03:28:04.066Z,4.08
2023-03-15T03:30:31.678Z,4.49
2023-03-15T03:32:58.879Z,4.47
2023-03-15T03:35:26.069Z,4.77
2023-03-15T03:37:53.919Z,4.43
2023-03-15T03:40:27.050Z,3.34
2023-03-15T03:42:54.228Z,3.98
2023-03-15T03:45:21.347Z,4.40
2023-03-15T03:47:52.205Z,3.91
2023-03-15T03:50:19.191Z,2.58
2023-03-15T03:52:46.186Z,2.34
2023-03-15T03:55:25.334Z,2.70
2023-03-15T03:57:53.818Z,2.73
2023-03-15T04:00:36.851Z,3.12
2023-03-15T04:03:04.972Z,3.05
2023-03-15T04:05:34.854Z,3.16
2023-03-15T04:08:01.947Z,3.44
2023-03-15T04:10:35.189Z,3.59
2023-03-15T04:13:03.237Z,3.67
2023-03-15T04:15:31.561Z,4.12
2023-03-15T04:17:59.582Z,3.91
2023-03-15T04:20:35.500Z,4.38
2023-03-15T04:23:03.323Z,4.33
2023-03-15T04:26:08.770Z,4.58
2023-03-15T04:28:57.092Z,4.31
2023-03-15T04:31:47.025Z,3.37
2023-03-15T04:34:30.311Z,2.77
2023-03-15T04:36:57.379Z,2.73
2023-03-15T04:39:47.213Z,3.17
2023-03-15T04:42:30.641Z,3.39
2023-03-15T04:45:20.689Z,3.06
2023-03-15T04:48:13.859Z,3.99
2023-03-15T04:50:58.095Z,4.79
2023-03-15T04:53:54.117Z,4.95
2023-03-15T04:56:39.482Z,4.77
2023-03-15T04:59:18.046Z,4.66
2023-03-15T05:02:04.130Z,3.23
2023-03-15T05:04:37.150Z,3.69
2023-03-15T05:07:30.481Z,2.58
2023-03-15T05:10:17.521Z,2.68
2023-03-15T05:13:19.145Z,3.02
2023-03-15T05:15:57.831Z,2.26
2023-03-15T05:18:57.663Z,2.76
2023-03-15T05:21:35.107Z,2.64
2023-03-15T05:24:22.423Z,2.79
2023-03-15T05:27:09.747Z,2.26
2023-03-15T05:29:57.113Z,3.13
2023-03-15T05:32:26.869Z,3.58
2023-03-15T05:35:14.048Z,2.66
2023-03-15T05:37:46.819Z,2.86
2023-03-15T05:40:49.197Z,3.48
2023-03-15T05:43:34.515Z,3.17
2023-03-15T05:46:24.784Z,3.95
2023-03-15T05:49:00.193Z,3.72
2023-03-15T05:51:35.387Z,4.09
2023-03-15T05:54:17.380Z,3.13
2023-03-15T05:57:13.630Z,2.93
2023-03-15T06:00:10.898Z,3.24
2023-03-15T06:02:41.608Z,3.40
2023-03-15T06:05:28.974Z,3.15
2023-03-15T06:07:57.053Z,3.41
2023-03-15T06:10:25.709Z,3.55
2023-03-15T06:12:55.531Z,2.70
2023-03-15T06:15:23.657Z,3.08
2023-03-15T06:17:52.238Z,2.95
2023-03-15T06:20:19.397Z,3.46
2023-03-15T06:22:46.335Z,3.13
2023-03-15T06:25:32.304Z,3.49
2023-03-15T06:27:59.578Z,3.33
2023-03-15T06:30:27.052Z,3.36
2023-03-15T06:32:57.689Z,3.47
2023-03-15T06:35:24.905Z,3.72
2023-03-15T06:37:53.108Z,3.19
2023-03-15T06:40:20.172Z,2.85
2023-03-15T06:42:48.224Z,3.04
2023-03-15T06:45:17.839Z,3.34
2023-03-15T06:47:46.022Z,3.09
2023-03-15T06:50:13.765Z,3.12
2023-03-15T06:52:40.964Z,3.19
2023-03-15T06:55:08.530Z,3.97
2023-03-15T06:57:36.086Z,4.53
2023-03-15T07:00:03.420Z,4.59
2023-03-15T07:02:37.072Z,4.46
2023-03-15T07:05:04.804Z,3.61
2023-03-15T07:07:31.752Z,3.99
2023-03-15T07:09:58.727Z,4.29
2023-03-15T07:12:25.762Z,3.70
2023-03-15T07:14:52.696Z,4.34
2023-03-15T07:17:19.776Z,4.17
2023-03-15T07:19:55.817Z,4.23
2023-03-15T07:22:24.053Z,3.27
2023-03-15T07:24:51.528Z,2.83
2023-03-15T07:27:19.571Z,3.64
2023-03-15T07:29:46.677Z,4.21
2023-03-15T07:32:13.753Z,3.78
2023-03-15T07:34:40.876Z,3.97
2023-03-15T07:37:08.111Z,4.14
2023-03-15T07:39:35.381Z,4.35
2023-03-15T07:42:02.546Z,4.80
2023-03-15T07:44:39.019Z,5.15
2023-03-15T07:47:06.199Z,5.24
2023-03-15T07:49:34.687Z,5.09
2023-03-15T07:52:01.829Z,5.03
2023-03-15T07:54:31.710Z,3.45
2023-03-15T07:56:58.756Z,4.35
2023-03-15T07:59:25.828Z,3.86
2023-03-15T08:01:53.009Z,4.21
2023-03-15T08:04:20.160Z,4.06
2023-03-15T08:06:47.135Z,4.07
2023-03-15T08:09:14.140Z,3.31
2023-03-15T08:11:42.148Z,3.72
2023-03-15T08:14:10.710Z,4.30
2023-03-15T08:16:37.827Z,4.12
2023-03-15T08:19:04.832Z,3.46
2023-03-15T08:21:33.884Z,3.60
2023-03-15T08:24:01.229Z,3.71
2023-03-15T08:26:28.235Z,3.48
2023-03-15T08:28:55.321Z,4.12
2023-03-15T08:31:23.393Z,3.59
2023-03-15T08:33:50.516Z,4.00
2023-03-15T08:36:17.631Z,5.14
2023-03-15T08:38:44.660Z,5.56
2023-03-15T08:41:11.726Z,4.78
2023-03-15T08:43:38.696Z,4.94
2023-03-15T08:46:05.814Z,5.32
2023-03-15T08:48:32.850Z,5.31
2023-03-15T08:51:04.349Z,5.90
2023-03-15T08:53:31.524Z,4.73
2023-03-15T08:55:58.681Z,4.43
2023-03-15T08:58:25.878Z,5.40
2023-03-15T09:00:53.334Z,4.12
2023-03-15T09:03:20.636Z,5.36
2023-03-15T09:05:47.729Z,4.87
2023-03-15T09:08:17.019Z,5.75
2023-03-15T09:10:44.493Z,4.97
2023-03-15T09:13:12.348Z,5.87
2023-03-15T09:15:39.389Z,5.43
2023-03-15T09:18:06.493Z,5.71
2023-03-15T09:20:33.536Z,5.27
2023-03-15T09:23:00.889Z,5.09
2023-03-15T09:25:27.907Z,5.86
2023-03-15T09:27:55.726Z,5.10
2023-03-15T09:30:22.768Z,6.01
2023-03-15T09:32:49.944Z,5.72
2023-03-15T09:35:18.884Z,5.64
2023-03-15T09:37:46.328Z,5.55
2023-03-15T09:40:19.397Z,6.24
2023-03-15T09:43:06.320Z,5.39
2023-03-15T09:45:57.837Z,5.10
2023-03-15T09:48:55.481Z,4.50
2023-03-15T09:51:48.079Z,4.75
2023-03-15T09:54:20.588Z,4.83
2023-03-15T09:57:02.462Z,4.63
2023-03-15T09:59:39.014Z,5.62
2023-03-15T10:02:32.540Z,5.02
2023-03-15T10:05:19.138Z,5.49
2023-03-15T10:07:46.285Z,5.15
2023-03-15T10:10:21.163Z,4.57
2023-03-15T10:12:52.553Z,5.18
2023-03-15T10:16:05.977Z,5.45
2023-03-15T10:18:44.261Z,4.80
2023-03-15T10:21:13.647Z,5.29
2023-03-15T10:23:55.973Z,6.40
2023-03-15T10:26:32.912Z,6.07
2023-03-15T10:29:01.209Z,6.33
2023-03-15T10:31:41.394Z,6.47
2023-03-15T10:34:14.058Z,7.02
2023-03-15T10:36:54.382Z,7.51
2023-03-15T10:39:22.356Z,7.23
2023-03-15T10:41:50.271Z,5.78
2023-03-15T10:44:24.682Z,5.80
2023-03-15T10:47:21.388Z,6.23
2023-03-15T10:49:50.930Z,6.82
2023-03-15T10:52:44.669Z,5.54
2023-03-15T10:55:16.606Z,5.65
2023-03-15T10:57:55.120Z,4.95
2023-03-15T11:00:31.234Z,5.71
2023-03-15T11:03:16.124Z,5.18
2023-03-15T11:05:47.822Z,5.89
2023-03-15T11:08:22.704Z,6.35
2023-03-15T11:10:59.822Z,7.13
2023-03-15T11:13:28.257Z,6.79
2023-03-15T11:15:56.868Z,6.98
2023-03-15T11:18:38.148Z,6.18
2023-03-15T11:21:07.288Z,6.34
2023-03-15T11:23:39.059Z,6.61
2023-03-15T11:26:08.610Z,7.00
2023-03-15T11:28:36.711Z,6.44
2023-03-15T11:31:04.752Z,6.40
2023-03-15T11:33:58.607Z,6.51
2023-03-15T11:36:27.874Z,6.93
2023-03-15T11:38:55.108Z,6.68
2023-03-15T11:41:21.992Z,6.31
2023-03-15T11:43:52.224Z,7.62
2023-03-15T11:46:41.046Z,8.06
2023-03-15T11:49:45.769Z,8.19
2023-03-15T11:52:12.969Z,8.27
2023-03-15T11:54:40.181Z,7.90
2023-03-15T11:57:27.796Z,7.44
2023-03-15T11:59:57.970Z,7.75
2023-03-15T12:02:26.453Z,7.70
2023-03-15T12:04:54.584Z,7.94
2023-03-15T12:07:24.599Z,7.85
2023-03-15T12:09:52.541Z,7.91
2023-03-15T12:12:25.639Z,7.13
2023-03-15T12:15:06.238Z,7.43
2023-03-15T12:17:43.104Z,7.91
2023-03-15T12:20:18.004Z,7.38
2023-03-15T12:22:51.902Z,7.54
2023-03-15T12:25:31.166Z,7.37
2023-03-15T12:27:58.663Z,7.07
2023-03-15T12:30:33.673Z,7.02
2023-03-15T12:33:01.839Z,7.59
2023-03-15T12:35:32.650Z,7.71
2023-03-15T12:38:01.521Z,7.76
2023-03-15T12:40:28.455Z,7.12
2023-03-15T12:42:57.528Z,7.04
2023-03-15T12:45:27.618Z,8.00
2023-03-15T12:47:54.488Z,7.82
2023-03-15T12:50:43.837Z,7.45
2023-03-15T12:53:22.891Z,7.05
2023-03-15T12:55:56.527Z,7.20
2023-03-15T12:58:28.712Z,7.18
2023-03-15T13:00:56.018Z,7.28
2023-03-15T13:03:24.160Z,6.78
2023-03-15T13:06:12.818Z,7.36
2023-03-15T13:09:08.950Z,8.39
2023-03-15T13:11:59.261Z,8.70
2023-03-15T13:14:51.042Z,8.37
2023-03-15T13:17:33.566Z,8.31
2023-03-15T13:20:20.458Z,8.37
2023-03-15T13:22:55.439Z,8.53
2023-03-15T13:25:46.731Z,9.26
2023-03-15T13:28:23.873Z,8.82
2023-03-15T13:30:55.621Z,8.69
2023-03-15T13:33:30.057Z,7.71
2023-03-15T13:36:11.561Z,8.68
2023-03-15T13:38:43.625Z,8.31
2023-03-15T13:41:25.062Z,7.64
2023-03-15T13:43:54.003Z,7.12
2023-03-15T13:46:23.394Z,7.53
2023-03-15T13:48:51.262Z,6.83
2023-03-15T13:51:22.947Z,7.29
2023-03-15T13:53:52.700Z,7.28
2023-03-15T13:56:37.373Z,6.83
2023-03-15T13:59:12.448Z,7.09
2023-03-15T14:01:40.061Z,7.61
2023-03-15T14:04:17.521Z,6.11
2023-03-15T14:06:47.314Z,5.75
2023-03-15T14:09:24.478Z,5.45
2023-03-15T14:12:07.730Z,6.23
2023-03-15T14:14:38.291Z,7.07
2023-03-15T14:17:18.737Z,7.37
2023-03-15T14:19:54.548Z,7.31
2023-03-15T14:22:21.489Z,6.46
2023-03-15T14:24:50.288Z,6.84
2023-03-15T14:27:19.536Z,6.70
2023-03-15T14:29:54.616Z,5.52
2023-03-15T14:32:24.682Z,6.13
2023-03-15T14:34:56.801Z,5.93
2023-03-15T14:37:44.364Z,6.35
2023-03-15T14:40:28.555Z,5.82
2023-03-15T14:42:55.499Z,6.25
2023-03-15T14:45:22.469Z,5.59
2023-03-15T14:47:59.087Z,5.01
2023-03-15T14:50:28.770Z,5.92
2023-03-15T14:52:58.261Z,6.22
2023-03-15T14:55:29.410Z,6.80
2023-03-15T14:57:56.949Z,7.23
2023-03-15T15:00:24.889Z,6.85
2023-03-15T15:02:52.791Z,6.13
2023-03-15T15:05:34.053Z,6.94
2023-03-15T15:08:06.331Z,7.68
2023-03-15T15:10:34.822Z,7.82
2023-03-15T15:13:06.748Z,7.35
2023-03-15T15:15:43.996Z,6.57
2023-03-15T15:18:18.613Z,6.52
2023-03-15T15:20:46.407Z,7.07
2023-03-15T15:23:32.177Z,6.70
2023-03-15T15:26:01.661Z,6.90
2023-03-15T15:28:36.076Z,7.15
2023-03-15T15:31:08.572Z,7.26
2023-03-15T15:33:35.884Z,7.67
2023-03-15T15:36:03.723Z,6.50
2023-03-15T15:38:39.730Z,6.84
2023-03-15T15:41:15.126Z,6.47
2023-03-15T15:43:43.278Z,6.22
2023-03-15T15:46:12.470Z,7.06
2023-03-15T15:48:40.816Z,7.68
2023-03-15T15:51:23.214Z,7.42
2023-03-15T15:53:50.978Z,7.16
2023-03-15T15:56:18.449Z,6.48
2023-03-15T15:58:45.453Z,6.70
2023-03-15T16:01:14.114Z,6.51
2023-03-15T16:03:41.923Z,6.92
2023-03-15T16:06:19.196Z,7.56
2023-03-15T16:08:46.895Z,6.25
2023-03-15T16:11:15.209Z,7.16
2023-03-15T16:13:43.169Z,7.05
2023-03-15T16:16:15.733Z,7.31
2023-03-15T16:18:42.989Z,7.35
2023-03-15T16:21:24.590Z,6.73
2023-03-15T16:23:58.613Z,7.65
2023-03-15T16:26:26.193Z,6.93
2023-03-15T16:28:53.299Z,7.42
2023-03-15T16:31:22.067Z,7.56
2023-03-15T16:33:49.833Z,7.71
2023-03-15T16:36:20.987Z,7.42
2023-03-15T16:38:48.037Z,7.70
2023-03-15T16:41:15.821Z,7.76
2023-03-15T16:43:43.019Z,7.69
2023-03-15T16:46:12.593Z,8.39
2023-03-15T16:48:39.606Z,8.48
2023-03-15T16:51:06.651Z,8.82
2023-03-15T16:53:35.574Z,8.55
2023-03-15T16:56:03.985Z,8.24
2023-03-15T16:58:31.425Z,8.76
2023-03-15T17:00:58.403Z,8.79
2023-03-15T17:03:27.430Z,8.45
2023-03-15T17:05:54.838Z,7.70
2023-03-15T17:08:22.078Z,7.82
2023-03-15T17:10:49.478Z,8.69
2023-03-15T17:13:17.465Z,9.15
2023-03-15T17:15:45.342Z,8.29
2023-03-15T17:18:19.471Z,8.76
2023-03-15T17:20:47.525Z,8.26
2023-03-15T17:23:14.675Z,7.83
2023-03-15T17:25:42.715Z,6.78
2023-03-15T17:28:09.797Z,7.57
2023-03-15T17:30:37.374Z,7.90
2023-03-15T17:33:04.740Z,8.08
2023-03-15T17:35:38.912Z,6.04
2023-03-15T17:38:06.981Z,7.40
2023-03-15T17:40:35.108Z,7.58
2023-03-15T17:43:02.782Z,7.26
2023-03-15T17:45:31.535Z,7.18
2023-03-15T17:47:58.712Z,7.39
2023-03-15T17:50:29.885Z,7.45
2023-03-15T17:52:57.460Z,6.07
2023-03-15T17:55:25.912Z,7.29
2023-03-15T17:57:55.503Z,7.28
2023-03-15T18:00:23.778Z,7.52
2023-03-15T18:02:55.736Z,7.96
2023-03-15T18:05:25.198Z,8.60
2023-03-15T18:07:58.717Z,8.27
2023-03-15T18:10:28.691Z,8.06
2023-03-15T18:12:55.775Z,7.96
2023-03-15T18:15:23.835Z,8.13
2023-03-15T18:17:50.956Z,7.71
2023-03-15T18:20:18.607Z,7.55
2023-03-15T18:22:45.601Z,7.63
2023-03-15T18:25:23.486Z,8.08
2023-03-15T18:27:50.538Z,7.73
2023-03-15T18:30:19.037Z,7.93
2023-03-15T18:32:46.125Z,8.17
2023-03-15T18:35:18.152Z,7.53
2023-03-15T18:37:45.423Z,7.65
2023-03-15T18:40:13.872Z,7.39
2023-03-15T18:42:41.605Z,7.70
2023-03-15T18:45:22.447Z,7.48
2023-03-15T18:47:49.594Z,6.57
2023-03-15T18:50:17.184Z,7.14
2023-03-15T18:52:44.557Z,6.54
2023-03-15T18:55:12.346Z,7.00
2023-03-15T18:57:41.664Z,7.18
2023-03-15T19:00:13.417Z,7.58
2023-03-15T19:02:45.080Z,6.42
2023-03-15T19:05:12.894Z,6.46
2023-03-15T19:07:40.270Z,6.61
2023-03-15T19:10:08.914Z,7.16
2023-03-15T19:12:36.926Z,7.11
2023-03-15T19:15:05.802Z,7.04
2023-03-15T19:17:33.546Z,6.73
2023-03-15T19:20:01.137Z,7.28
2023-03-15T19:22:31.088Z,7.51
2023-03-15T19:24:58.275Z,7.76
2023-03-15T19:27:25.660Z,7.87
2023-03-15T19:29:52.674Z,8.06
2023-03-15T19:32:20.957Z,8.02
2023-03-15T19:34:48.190Z,8.08
2023-03-15T19:37:15.404Z,8.03
2023-03-15T19:39:42.520Z,8.16
2023-03-15T19:42:09.612Z,8.17
2023-03-15T19:44:36.794Z,7.96
2023-03-15T19:47:04.092Z,7.95
2023-03-15T19:49:31.188Z,7.47
2023-03-15T19:51:59.274Z,7.55
2023-03-15T19:54:26.396Z,7.38
2023-03-15T19:56:54.605Z,7.64
2023-03-15T19:59:21.719Z,7.40
2023-03-15T20:01:49.187Z,7.18
2023-03-15T20:04:16.469Z,7.16
2023-03-15T20:06:43.609Z,7.15
2023-03-15T20:09:12.014Z,7.30
2023-03-15T20:11:39.126Z,7.23
2023-03-15T20:14:06.399Z,7.12
2023-03-15T20:16:33.513Z,7.16
2023-03-15T20:19:01.109Z,6.76
2023-03-15T20:21:29.488Z,6.77
2023-03-15T20:23:56.780Z,6.91
2023-03-15T20:26:25.276Z,6.77
2023-03-15T20:28:52.627Z,6.69
2023-03-15T20:31:19.881Z,6.70
2023-03-15T20:33:48.607Z,6.68
2023-03-15T20:36:16.383Z,6.69
2023-03-15T20:38:44.229Z,6.65
2023-03-15T20:41:13.961Z,6.57
2023-03-15T20:43:41.551Z,6.51
2023-03-15T20:46:10.036Z,6.40
2023-03-15T20:48:37.176Z,6.68
2023-03-15T20:51:04.626Z,6.90
2023-03-15T20:53:32.899Z,6.73
2023-03-15T20:56:00.879Z,6.59
2023-03-15T20:58:28.036Z,6.24
2023-03-15T21:01:03.396Z,5.85
2023-03-15T21:03:33.246Z,6.22
2023-03-15T21:06:01.135Z,6.68
2023-03-15T21:08:28.488Z,6.79
2023-03-15T21:10:55.760Z,6.74
2023-03-15T21:13:22.950Z,6.68
2023-03-15T21:15:52.087Z,6.59
2023-03-15T21:18:21.854Z,6.39
2023-03-15T21:21:02.509Z,5.93
2023-03-15T21:23:33.042Z,5.96
2023-03-15T21:26:02.166Z,6.25
2023-03-15T21:28:29.498Z,6.24
2023-03-15T21:30:56.686Z,6.18
2023-03-15T21:33:25.131Z,6.34
2023-03-15T21:35:52.577Z,6.73
2023-03-15T21:38:20.083Z,6.57
2023-03-15T21:40:47.834Z,6.26
2023-03-15T21:43:15.013Z,6.17
2023-03-15T21:45:42.626Z,6.15
2023-03-15T21:48:09.718Z,6.32
2023-03-15T21:50:36.746Z,6.21
2023-03-15T21:53:03.980Z,6.14
2023-03-15T21:55:33.606Z,6.39
2023-03-15T21:58:07.399Z,6.71
2023-03-15T22:00:34.830Z,6.43
2023-03-15T22:03:01.821Z,6.22
2023-03-15T22:05:28.895Z,6.18
2023-03-15T22:07:55.921Z,6.02
2023-03-15T22:10:23.380Z,6.00
2023-03-15T22:12:54.017Z,5.93
2023-03-15T22:15:22.117Z,6.23
2023-03-15T22:17:49.102Z,6.30
2023-03-15T22:20:16.932Z,6.04
2023-03-15T22:22:45.050Z,5.79
2023-03-15T22:25:12.820Z,5.80
2023-03-15T22:27:40.347Z,5.97
2023-03-15T22:30:08.665Z,5.73
2023-03-15T22:32:35.670Z,5.69
2023-03-15T22:35:02.734Z,5.77
2023-03-15T22:37:29.745Z,5.76
2023-03-15T22:39:56.869Z,5.96
2023-03-15T22:42:23.896Z,6.01
2023-03-15T22:44:51.007Z,5.79
2023-03-15T22:47:18.093Z,5.67
2023-03-15T22:49:45.041Z,5.48
2023-03-15T22:52:12.178Z,5.50
2023-03-15T22:54:42.816Z,5.57
2023-03-15T22:57:11.453Z,5.75
2023-03-15T22:59:38.963Z,5.66
2023-03-15T23:02:07.187Z,5.58
2023-03-15T23:04:34.361Z,5.57
2023-03-15T23:07:01.805Z,5.82
2023-03-15T23:09:28.861Z,5.76
2023-03-15T23:11:55.856Z,5.61
2023-03-15T23:14:22.837Z,5.67
2023-03-15T23:16:49.849Z,5.76
2023-03-15T23:19:16.989Z,5.64
2023-03-15T23:21:44.032Z,5.51
2023-03-15T23:24:13.890Z,5.40
2023-03-15T23:26:40.967Z,5.37
2023-03-15T23:29:10.807Z,5.45
2023-03-15T23:31:38.599Z,5.49
2023-03-15T23:34:06.102Z,5.58
2023-03-15T23:36:33.717Z,5.45
2023-03-15T23:39:00.699Z,5.29
2023-03-15T23:41:27.753Z,5.32
2023-03-15T23:43:54.692Z,5.60
2023-03-15T23:46:23.680Z,5.58
2023-03-15T23:48:52.436Z,5.33
2023-03-15T23:51:19.908Z,5.22
2023-03-15T23:53:46.891Z,5.16
2023-03-15T23:56:13.854Z,5.11
2023-03-15T23:58:40.936Z,5.05
